createdAt,value
2018-05-07T00:00:33.626Z,35.39
2018-05-07T00:01:43.589Z,35.39
2018-05-07T00:02:53.301Z,35.29
2018-05-07T00:04:01.933Z,35.29
2018-05-07T00:05:11.115Z,35.29
2018-05-07T00:06:20.278Z,35.29
2018-05-07T00:07:29.458Z,35.39
2018-05-07T00:08:38.968Z,35.29
2018-05-07T00:09:48.387Z,35.29
2018-05-07T00:10:57.824Z,35.28
2018-05-07T00:12:07.030Z,35.29
2018-05-07T00:13:15.950Z,35.18
2018-05-07T00:14:25.405Z,35.28
2018-05-07T00:15:34.367Z,35.2
2018-05-07T00:16:43.951Z,35.18
2018-05-07T00:17:53.127Z,35.29
2018-05-07T00:19:02.549Z,35.28
2018-05-07T00:20:12.260Z,35.39
2018-05-07T00:21:21.696Z,35.39
2018-05-07T00:22:31.167Z,35.37
2018-05-07T00:23:41.201Z,35.37
2018-05-07T00:24:50.663Z,35.39
2018-05-07T00:26:00.386Z,35.47
2018-05-07T00:27:09.562Z,35.28
2018-05-07T00:28:19.067Z,35.28
2018-05-07T00:29:28.829Z,35.28
2018-05-07T00:30:37.747Z,35.28
2018-05-07T00:31:46.923Z,35.29
2018-05-07T00:32:56.328Z,35.28
2018-05-07T00:34:05.512Z,35.28
2018-05-07T00:35:15.215Z,35.57
2018-05-07T00:36:24.401Z,35.57
2018-05-07T00:37:34.097Z,35.37
2018-05-07T00:38:43.267Z,35.28
2018-05-07T00:39:52.714Z,35.28
2018-05-07T00:41:02.670Z,35.47
2018-05-07T00:42:11.840Z,35.28
2018-05-07T00:43:21.018Z,35.37
2018-05-07T00:44:30.197Z,35.57
2018-05-07T00:45:39.358Z,35.57
2018-05-07T00:46:49.326Z,35.57
2018-05-07T00:47:58.742Z,35.57
2018-05-07T00:49:08.185Z,35.57
2018-05-07T00:50:16.840Z,35.57
2018-05-07T00:51:26.299Z,35.37
2018-05-07T00:52:35.193Z,35.37
2018-05-07T00:53:44.611Z,35.66
2018-05-07T00:54:54.047Z,35.66
2018-05-07T00:56:03.222Z,35.37
2018-05-07T00:57:13.223Z,35.37
2018-05-07T00:58:22.668Z,35.66
2018-05-07T00:59:31.837Z,35.47
2018-05-07T01:00:41.024Z,35.57
2018-05-07T01:01:50.439Z,35.47
2018-05-07T01:02:59.879Z,35.57
2018-05-07T01:04:09.631Z,35.57
2018-05-07T01:05:19.376Z,35.47
2018-05-07T01:06:28.832Z,35.47
2018-05-07T01:07:37.799Z,35.66
2018-05-07T01:08:47.260Z,35.66
2018-05-07T01:09:56.689Z,35.47
2018-05-07T01:11:06.118Z,35.47
2018-05-07T01:12:15.289Z,35.47
2018-05-07T01:13:24.459Z,35.37
2018-05-07T01:14:34.844Z,35.47
2018-05-07T01:15:44.520Z,35.47
2018-05-07T01:16:53.699Z,35.58
2018-05-07T01:18:03.401Z,35.66
2018-05-07T01:19:12.822Z,35.47
2018-05-07T01:20:22.247Z,35.47
2018-05-07T01:21:31.406Z,35.76
2018-05-07T01:22:40.867Z,35.37
2018-05-07T01:23:50.551Z,35.37
2018-05-07T01:24:59.730Z,35.47
2018-05-07T01:26:08.954Z,35.57
2018-05-07T01:27:18.648Z,35.47
2018-05-07T01:28:27.829Z,35.66
2018-05-07T01:29:37.270Z,35.57
2018-05-07T01:30:46.439Z,35.66
2018-05-07T01:31:55.884Z,35.47
2018-05-07T01:33:05.068Z,35.57
2018-05-07T01:34:14.235Z,35.47
2018-05-07T01:35:23.683Z,35.57
2018-05-07T01:36:33.455Z,35.37
2018-05-07T01:37:42.877Z,35.57
2018-05-07T01:38:52.330Z,35.57
2018-05-07T01:40:01.522Z,35.37
2018-05-07T01:41:11.221Z,35.57
2018-05-07T01:42:20.661Z,35.57
2018-05-07T01:43:30.349Z,35.47
2018-05-07T01:44:39.523Z,35.57
2018-05-07T01:45:48.696Z,35.57
2018-05-07T01:46:58.146Z,35.57
2018-05-07T01:48:07.577Z,35.57
2018-05-07T01:49:17.271Z,35.47
2018-05-07T01:50:26.535Z,35.57
2018-05-07T01:51:36.015Z,35.28
2018-05-07T01:52:45.954Z,35.47
2018-05-07T01:53:55.657Z,35.57
2018-05-07T01:55:05.117Z,35.37
2018-05-07T01:56:14.565Z,35.66
2018-05-07T01:57:23.232Z,35.37
2018-05-07T01:58:32.397Z,35.66
2018-05-07T01:59:42.083Z,35.66
2018-05-07T02:00:51.254Z,35.57
2018-05-07T02:02:00.722Z,35.66
2018-05-07T02:03:10.157Z,35.57
2018-05-07T02:04:19.895Z,35.66
2018-05-07T02:05:29.517Z,35.37
2018-05-07T02:06:38.945Z,35.47
2018-05-07T02:07:48.641Z,35.66
2018-05-07T02:08:58.348Z,35.57
2018-05-07T02:10:07.519Z,35.76
2018-05-07T02:11:16.420Z,35.57
2018-05-07T02:12:26.149Z,35.66
2018-05-07T02:13:34.837Z,35.47
2018-05-07T02:14:44.280Z,35.66
2018-05-07T02:15:53.470Z,35.57
2018-05-07T02:17:03.194Z,35.37
2018-05-07T02:18:12.878Z,35.57
2018-05-07T02:19:22.046Z,35.47
2018-05-07T02:20:30.995Z,35.57
2018-05-07T02:21:40.172Z,35.47
2018-05-07T02:22:49.078Z,35.66
2018-05-07T02:23:58.229Z,35.57
2018-05-07T02:25:07.932Z,35.57
2018-05-07T02:26:17.103Z,35.57
2018-05-07T02:27:26.291Z,35.57
2018-05-07T02:28:35.700Z,35.57
2018-05-07T02:29:44.618Z,35.47
2018-05-07T02:30:54.051Z,35.47
2018-05-07T02:32:03.476Z,35.57
2018-05-07T02:33:12.927Z,35.47
2018-05-07T02:34:22.412Z,35.47
2018-05-07T02:35:31.586Z,35.57
2018-05-07T02:36:41.305Z,35.66
2018-05-07T02:37:50.717Z,35.57
2018-05-07T02:39:00.597Z,35.57
2018-05-07T02:40:10.518Z,35.57
2018-05-07T02:41:19.952Z,35.47
2018-05-07T02:42:29.631Z,35.57
2018-05-07T02:43:39.566Z,35.57
2018-05-07T02:44:48.730Z,35.66
2018-05-07T02:45:58.177Z,35.58
2018-05-07T02:47:07.855Z,35.47
2018-05-07T02:48:17.282Z,35.66
2018-05-07T02:49:26.962Z,35.57
2018-05-07T02:50:36.655Z,35.57
2018-05-07T02:51:46.079Z,35.57
2018-05-07T02:52:55.252Z,35.47
2018-05-07T02:54:04.201Z,35.66
2018-05-07T02:55:13.125Z,35.66
2018-05-07T02:56:22.818Z,35.47
2018-05-07T02:57:32.500Z,35.57
2018-05-07T02:58:41.929Z,35.57
2018-05-07T02:59:51.647Z,35.57
2018-05-07T03:01:00.850Z,35.47
2018-05-07T03:02:09.545Z,35.57
2018-05-07T03:03:19.090Z,35.57
2018-05-07T03:04:28.798Z,35.47
2018-05-07T03:05:38.265Z,35.47
2018-05-07T03:06:47.689Z,35.66
2018-05-07T03:07:57.429Z,35.57
2018-05-07T03:09:06.602Z,35.57
2018-05-07T03:10:16.051Z,35.47
2018-05-07T03:11:26.043Z,35.47
2018-05-07T03:12:35.488Z,35.37
2018-05-07T03:13:44.924Z,35.57
2018-05-07T03:14:54.380Z,35.57
2018-05-07T03:16:04.318Z,35.57
2018-05-07T03:17:14.036Z,35.37
2018-05-07T03:18:23.208Z,35.57
2018-05-07T03:19:33.168Z,35.57
2018-05-07T03:20:42.624Z,35.47
2018-05-07T03:21:52.053Z,35.66
2018-05-07T03:23:01.490Z,35.37
2018-05-07T03:24:10.657Z,35.47
2018-05-07T03:25:19.850Z,35.37
2018-05-07T03:26:28.764Z,35.37
2018-05-07T03:27:38.202Z,35.57
2018-05-07T03:28:47.370Z,35.37
2018-05-07T03:29:56.798Z,35.47
2018-05-07T03:31:06.509Z,35.66
2018-05-07T03:32:15.971Z,35.47
2018-05-07T03:33:24.892Z,35.47
2018-05-07T03:34:34.333Z,35.57
2018-05-07T03:35:43.541Z,35.47
2018-05-07T03:36:52.969Z,35.47
2018-05-07T03:38:02.679Z,35.47
2018-05-07T03:39:11.877Z,35.57
2018-05-07T03:40:21.836Z,35.57
2018-05-07T03:41:31.143Z,35.57
2018-05-07T03:42:40.575Z,35.47
2018-05-07T03:43:50.025Z,35.47
2018-05-07T03:44:59.192Z,35.57
2018-05-07T03:46:08.917Z,35.57
2018-05-07T03:47:18.367Z,35.57
2018-05-07T03:48:27.810Z,35.57
2018-05-07T03:49:37.051Z,35.47
2018-05-07T03:50:46.738Z,35.47
2018-05-07T03:51:55.721Z,35.47
2018-05-07T03:53:04.609Z,35.47
2018-05-07T03:54:14.574Z,35.57
2018-05-07T03:55:23.744Z,35.57
2018-05-07T03:56:33.196Z,35.47
2018-05-07T03:57:42.105Z,35.47
2018-05-07T03:58:51.789Z,35.66
2018-05-07T04:00:00.968Z,35.47
2018-05-07T04:01:09.876Z,35.47
2018-05-07T04:02:19.564Z,35.57
2018-05-07T04:03:28.547Z,35.57
2018-05-07T04:04:38.251Z,35.57
2018-05-07T04:05:47.442Z,35.66
2018-05-07T04:06:56.330Z,35.47
2018-05-07T04:08:05.831Z,35.66
2018-05-07T04:09:15.798Z,35.47
2018-05-07T04:10:25.224Z,35.47
2018-05-07T04:11:34.654Z,35.47
2018-05-07T04:12:43.568Z,35.47
2018-05-07T04:13:53.259Z,35.47
2018-05-07T04:15:02.164Z,35.57
2018-05-07T04:16:11.862Z,35.66
2018-05-07T04:17:21.550Z,35.47
2018-05-07T04:18:31.033Z,35.47
2018-05-07T04:19:40.450Z,35.57
2018-05-07T04:20:50.143Z,35.66
2018-05-07T04:21:59.308Z,35.57
2018-05-07T04:23:08.561Z,35.57
2018-05-07T04:24:17.464Z,35.57
2018-05-07T04:25:26.915Z,35.47
2018-05-07T04:26:36.344Z,35.47
2018-05-07T04:27:45.235Z,35.57
2018-05-07T04:28:54.641Z,35.57
2018-05-07T04:30:04.081Z,35.57
2018-05-07T04:31:13.290Z,35.66
2018-05-07T04:32:22.733Z,35.57
2018-05-07T04:33:32.176Z,35.57
2018-05-07T04:34:41.954Z,35.57
2018-05-07T04:35:51.369Z,35.47
2018-05-07T04:37:00.553Z,35.47
2018-05-07T04:38:09.454Z,35.57
2018-05-07T04:39:18.716Z,35.47
2018-05-07T04:40:27.873Z,35.57
2018-05-07T04:41:37.057Z,35.57
2018-05-07T04:42:46.245Z,35.57
2018-05-07T04:43:56.212Z,35.76
2018-05-07T04:45:05.370Z,35.57
2018-05-07T04:46:14.803Z,35.57
2018-05-07T04:47:23.715Z,35.66
2018-05-07T04:48:33.475Z,35.57
2018-05-07T04:49:42.934Z,35.47
2018-05-07T04:50:52.177Z,35.37
2018-05-07T04:52:01.353Z,35.66
2018-05-07T04:53:10.549Z,35.57
2018-05-07T04:54:20.526Z,35.37
2018-05-07T04:55:29.715Z,35.57
2018-05-07T04:56:39.231Z,35.47
2018-05-07T04:57:48.394Z,35.57
2018-05-07T04:58:57.561Z,35.66
2018-05-07T05:00:06.498Z,35.76
2018-05-07T05:01:15.662Z,35.47
2018-05-07T05:02:24.835Z,35.47
2018-05-07T05:03:34.530Z,35.66
2018-05-07T05:04:44.222Z,35.66
2018-05-07T05:05:53.937Z,35.47
2018-05-07T05:07:03.914Z,35.66
2018-05-07T05:08:12.855Z,35.66
2018-05-07T05:09:22.309Z,35.57
2018-05-07T05:10:32.251Z,35.47
2018-05-07T05:11:41.956Z,35.66
2018-05-07T05:12:51.391Z,35.57
2018-05-07T05:14:00.844Z,35.57
2018-05-07T05:15:10.272Z,35.47
2018-05-07T05:16:19.960Z,35.66
2018-05-07T05:17:29.640Z,35.57
2018-05-07T05:18:39.327Z,35.47
2018-05-07T05:19:48.542Z,35.66
2018-05-07T05:20:57.972Z,35.47
2018-05-07T05:22:07.810Z,35.47
2018-05-07T05:23:17.530Z,35.37
2018-05-07T05:24:26.978Z,35.47
2018-05-07T05:25:36.409Z,35.57
2018-05-07T05:26:45.877Z,35.66
2018-05-07T05:27:55.405Z,35.57
2018-05-07T05:29:04.833Z,35.47
2018-05-07T05:30:14.530Z,35.37
2018-05-07T05:31:24.218Z,35.66
2018-05-07T05:32:33.393Z,35.47
2018-05-07T05:33:42.812Z,35.66
2018-05-07T05:34:52.778Z,35.66
2018-05-07T05:36:02.455Z,35.57
2018-05-07T05:37:11.131Z,35.47
2018-05-07T05:38:21.375Z,35.57
2018-05-07T05:39:30.280Z,35.66
2018-05-07T05:40:39.701Z,35.47
2018-05-07T05:41:49.666Z,35.57
2018-05-07T05:42:59.099Z,35.57
2018-05-07T05:44:09.051Z,35.66
2018-05-07T05:45:18.477Z,35.57
2018-05-07T05:46:27.922Z,35.28
2018-05-07T05:47:37.085Z,35.66
2018-05-07T05:48:46.774Z,35.57
2018-05-07T05:49:56.663Z,35.57
2018-05-07T05:51:06.108Z,35.57
2018-05-07T05:52:15.573Z,35.28
2018-05-07T05:53:25.000Z,35.57
2018-05-07T05:54:34.411Z,35.57
2018-05-07T05:55:43.355Z,35.57
2018-05-07T05:56:52.793Z,35.28
2018-05-07T05:58:02.013Z,35.47
2018-05-07T05:59:11.735Z,35.28
2018-05-07T06:00:21.433Z,35.28
2018-05-07T06:01:30.581Z,35.47
2018-05-07T06:02:40.522Z,35.28
2018-05-07T06:03:50.356Z,35.28
2018-05-07T06:04:59.606Z,35.28
2018-05-07T06:06:08.524Z,35.47
2018-05-07T06:07:18.463Z,35.76
2018-05-07T06:08:27.635Z,35.47
2018-05-07T06:09:37.323Z,35.28
2018-05-07T06:10:46.496Z,35.37
2018-05-07T06:11:55.404Z,35.37
2018-05-07T06:13:04.304Z,35.47
2018-05-07T06:14:13.524Z,35.37
2018-05-07T06:15:22.167Z,35.28
2018-05-07T06:16:31.678Z,35.28
2018-05-07T06:17:41.373Z,35.47
2018-05-07T06:18:50.286Z,35.18
2018-05-07T06:19:59.706Z,35.66
2018-05-07T06:21:09.192Z,35.18
2018-05-07T06:22:18.753Z,35.28
2018-05-07T06:23:28.182Z,35.18
2018-05-07T06:24:37.600Z,35.37
2018-05-07T06:25:47.084Z,35.47
2018-05-07T06:26:56.276Z,35.47
2018-05-07T06:28:05.727Z,35.18
2018-05-07T06:29:14.910Z,35.37
2018-05-07T06:30:24.612Z,35.37
2018-05-07T06:31:33.554Z,35.37
2018-05-07T06:32:42.731Z,35.28
2018-05-07T06:33:51.930Z,35.28
2018-05-07T06:35:01.414Z,35.18
2018-05-07T06:36:11.247Z,35.37
2018-05-07T06:37:20.475Z,35.18
2018-05-07T06:38:29.658Z,35.28
2018-05-07T06:39:38.607Z,35.18
2018-05-07T06:40:47.519Z,35.18
2018-05-07T06:41:57.223Z,35.28
2018-05-07T06:43:06.704Z,35.28
2018-05-07T06:44:15.629Z,35.18
2018-05-07T06:45:24.848Z,35.37
2018-05-07T06:46:33.792Z,35.28
2018-05-07T06:47:43.540Z,35.28
2018-05-07T06:48:53.029Z,35.28
2018-05-07T06:50:02.464Z,35.28
2018-05-07T06:51:11.623Z,35.28
2018-05-07T06:52:21.337Z,35.28
2018-05-07T06:53:31.020Z,35.28
2018-05-07T06:54:40.210Z,35.28
2018-05-07T06:55:49.374Z,35.28
2018-05-07T06:56:58.584Z,35.28
2018-05-07T06:58:07.733Z,35.18
2018-05-07T06:59:16.631Z,35.28
2018-05-07T07:00:26.049Z,35.28
2018-05-07T07:01:35.197Z,35.28
2018-05-07T07:02:45.250Z,35.28
2018-05-07T07:03:55.578Z,35.28
2018-05-07T07:05:05.028Z,35.37
2018-05-07T07:06:14.201Z,35.28
2018-05-07T07:07:24.023Z,35.37
2018-05-07T07:08:34.666Z,35.28
2018-05-07T07:09:45.021Z,35.28
2018-05-07T07:10:53.968Z,35.18
2018-05-07T07:12:02.868Z,35.47
2018-05-07T07:13:12.292Z,35.37
2018-05-07T07:14:21.740Z,35.47
2018-05-07T07:15:31.217Z,35.37
2018-05-07T07:16:41.356Z,35.18
2018-05-07T07:17:50.803Z,35.28
2018-05-07T07:19:00.230Z,35.28
2018-05-07T07:20:09.394Z,35.37
2018-05-07T07:21:19.099Z,35.28
2018-05-07T07:22:28.510Z,35.08
2018-05-07T07:23:38.198Z,35.18
2018-05-07T07:24:47.680Z,35.28
2018-05-07T07:25:57.359Z,35.18
2018-05-07T07:27:07.018Z,35.28
2018-05-07T07:28:16.843Z,35.28
2018-05-07T07:29:26.552Z,35.37
2018-05-07T07:30:35.516Z,35.08
2018-05-07T07:31:44.935Z,35.28
2018-05-07T07:32:54.127Z,35.08
2018-05-07T07:34:03.946Z,35.08
2018-05-07T07:35:13.786Z,35.18
2018-05-07T07:36:23.227Z,35.08
2018-05-07T07:37:32.665Z,35.28
2018-05-07T07:38:41.837Z,35.39
2018-05-07T07:39:51.260Z,35.1
2018-05-07T07:41:00.674Z,35.2
2018-05-07T07:42:09.580Z,35.28
2018-05-07T07:43:19.009Z,35.2
2018-05-07T07:44:28.535Z,35.08
2018-05-07T07:45:37.965Z,35.08
2018-05-07T07:46:47.646Z,35.1
2018-05-07T07:47:56.827Z,35.08
2018-05-07T07:49:06.247Z,35.39
2018-05-07T07:50:15.145Z,35.49
2018-05-07T07:51:24.837Z,35.29
2018-05-07T07:52:34.677Z,35.2
2018-05-07T07:53:44.174Z,35.1
2018-05-07T07:54:53.840Z,35.29
2018-05-07T07:56:03.007Z,35.1
2018-05-07T07:57:12.168Z,35.08
2018-05-07T07:58:21.882Z,35.28
2018-05-07T07:59:31.096Z,35.2
2018-05-07T08:00:40.265Z,35.39
2018-05-07T08:01:49.681Z,35.2
2018-05-07T08:02:58.869Z,35.29
2018-05-07T08:04:08.340Z,35.2
2018-05-07T08:05:18.257Z,35.1
2018-05-07T08:06:27.426Z,35.29
2018-05-07T08:07:36.851Z,35.1
2018-05-07T08:08:46.259Z,35.1
2018-05-07T08:09:55.936Z,35.2
2018-05-07T08:11:05.109Z,35.2
2018-05-07T08:12:14.638Z,35.2
2018-05-07T08:13:24.586Z,35.2
2018-05-07T08:14:34.025Z,35.1
2018-05-07T08:15:43.435Z,35.2
2018-05-07T08:16:53.196Z,35.29
2018-05-07T08:18:02.656Z,35.29
2018-05-07T08:19:12.338Z,35.29
2018-05-07T08:20:21.513Z,35.29
2018-05-07T08:21:30.930Z,35.29
2018-05-07T08:22:40.888Z,35.29
2018-05-07T08:23:50.336Z,35.29
2018-05-07T08:24:59.251Z,35.29
2018-05-07T08:26:08.466Z,35.39
2018-05-07T08:27:17.686Z,35.39
2018-05-07T08:28:26.895Z,35.49
2018-05-07T08:29:36.119Z,35.29
2018-05-07T08:30:45.038Z,35.39
2018-05-07T08:31:54.227Z,35.49
2018-05-07T08:33:03.926Z,35.58
2018-05-07T08:34:12.855Z,35.68
2018-05-07T08:35:22.543Z,35.58
2018-05-07T08:36:32.340Z,35.39
2018-05-07T08:37:42.163Z,35.68
2018-05-07T08:38:51.332Z,35.68
2018-05-07T08:40:00.492Z,35.49
2018-05-07T08:41:10.171Z,35.58
2018-05-07T08:42:19.379Z,35.68
2018-05-07T08:43:29.347Z,35.49
2018-05-07T08:44:38.801Z,35.78
2018-05-07T08:45:47.950Z,35.97
2018-05-07T08:46:57.634Z,35.88
2018-05-07T08:48:06.303Z,35.88
2018-05-07T08:49:15.493Z,36.07
2018-05-07T08:50:24.736Z,35.88
2018-05-07T08:51:33.920Z,36.07
2018-05-07T08:52:43.718Z,36.07
2018-05-07T08:53:53.900Z,35.88
2018-05-07T08:55:02.806Z,35.88
2018-05-07T08:56:11.737Z,35.88
2018-05-07T08:57:21.208Z,35.88
2018-05-07T08:58:30.960Z,36.16
2018-05-07T08:59:40.697Z,35.88
2018-05-07T09:00:49.612Z,35.97
2018-05-07T09:01:58.789Z,35.88
2018-05-07T09:03:08.979Z,35.88
2018-05-07T09:04:18.437Z,35.97
2018-05-07T09:05:28.239Z,35.78
2018-05-07T09:06:37.444Z,36.26
2018-05-07T09:07:46.606Z,36.46
2018-05-07T09:08:55.514Z,36.26
2018-05-07T09:10:04.956Z,36.26
2018-05-07T09:11:14.122Z,36.16
2018-05-07T09:12:22.764Z,36.36
2018-05-07T09:13:32.021Z,36.26
2018-05-07T09:14:41.285Z,36.36
2018-05-07T09:15:51.055Z,36.46
2018-05-07T09:17:01.009Z,36.46
2018-05-07T09:18:10.195Z,36.36
2018-05-07T09:19:19.628Z,36.16
2018-05-07T09:20:29.091Z,36.55
2018-05-07T09:21:38.758Z,36.55
2018-05-07T09:22:48.185Z,36.55
2018-05-07T09:23:57.604Z,36.46
2018-05-07T09:25:06.786Z,36.36
2018-05-07T09:26:16.217Z,36.55
2018-05-07T09:27:25.655Z,36.36
2018-05-07T09:28:35.338Z,36.55
2018-05-07T09:29:44.513Z,36.46
2018-05-07T09:30:53.695Z,36.55
2018-05-07T09:32:03.108Z,36.36
2018-05-07T09:33:12.281Z,36.46
2018-05-07T09:34:21.200Z,36.46
2018-05-07T09:35:30.872Z,36.46
2018-05-07T09:36:40.810Z,36.46
2018-05-07T09:37:50.504Z,36.55
2018-05-07T09:38:59.405Z,36.46
2018-05-07T09:40:09.101Z,36.55
2018-05-07T09:41:18.533Z,36.16
2018-05-07T09:42:27.697Z,36.36
2018-05-07T09:43:37.129Z,36.16
2018-05-07T09:44:46.575Z,36.26
2018-05-07T09:45:56.560Z,36.16
2018-05-07T09:47:05.473Z,36.26
2018-05-07T09:48:15.242Z,36.55
2018-05-07T09:49:25.716Z,36.46
2018-05-07T09:50:35.154Z,36.55
2018-05-07T09:51:44.396Z,36.55
2018-05-07T09:52:53.846Z,36.36
2018-05-07T09:54:03.280Z,36.36
2018-05-07T09:55:12.454Z,36.46
2018-05-07T09:56:21.875Z,36.36
2018-05-07T09:57:31.310Z,36.36
2018-05-07T09:58:41.063Z,36.36
2018-05-07T09:59:50.235Z,36.26
2018-05-07T10:00:59.415Z,36.36
2018-05-07T10:02:08.331Z,36.36
2018-05-07T10:03:18.047Z,36.36
2018-05-07T10:04:27.205Z,36.36
2018-05-07T10:05:36.390Z,36.46
2018-05-07T10:06:45.822Z,36.46
2018-05-07T10:07:55.257Z,36.46
2018-05-07T10:09:04.946Z,36.55
2018-05-07T10:10:14.660Z,36.55
2018-05-07T10:11:25.036Z,36.46
2018-05-07T10:12:34.224Z,36.46
2018-05-07T10:13:43.647Z,36.65
2018-05-07T10:14:53.338Z,36.55
2018-05-07T10:16:02.943Z,36.36
2018-05-07T10:17:12.776Z,36.46
2018-05-07T10:18:21.967Z,36.65
2018-05-07T10:19:31.673Z,36.55
2018-05-07T10:20:41.107Z,36.36
2018-05-07T10:21:50.776Z,36.94
2018-05-07T10:23:00.236Z,36.84
2018-05-07T10:24:10.053Z,36.74
2018-05-07T10:25:19.986Z,36.74
2018-05-07T10:26:29.178Z,36.84
2018-05-07T10:27:38.354Z,36.74
2018-05-07T10:28:47.802Z,36.84
2018-05-07T10:29:57.318Z,36.65
2018-05-07T10:31:06.629Z,36.84
2018-05-07T10:32:16.325Z,36.84
2018-05-07T10:33:25.504Z,36.74
2018-05-07T10:34:35.474Z,36.74
2018-05-07T10:35:44.651Z,36.74
2018-05-07T10:36:53.590Z,36.74
2018-05-07T10:38:03.144Z,36.74
2018-05-07T10:39:12.317Z,36.94
2018-05-07T10:40:21.777Z,36.84
2018-05-07T10:41:30.965Z,36.84
2018-05-07T10:42:40.603Z,36.74
2018-05-07T10:43:50.468Z,36.94
2018-05-07T10:44:59.662Z,36.94
2018-05-07T10:46:09.112Z,36.84
2018-05-07T10:47:18.797Z,37.04
2018-05-07T10:48:27.957Z,36.94
2018-05-07T10:49:37.167Z,36.84
2018-05-07T10:50:46.086Z,37.04
2018-05-07T10:51:55.254Z,36.74
2018-05-07T10:53:04.170Z,36.94
2018-05-07T10:54:13.618Z,36.94
2018-05-07T10:55:22.790Z,37.04
2018-05-07T10:56:32.212Z,37.04
2018-05-07T10:57:42.168Z,37.04
2018-05-07T10:58:51.384Z,36.94
2018-05-07T11:00:00.805Z,36.94
2018-05-07T11:01:09.701Z,37.04
2018-05-07T11:02:18.627Z,36.65
2018-05-07T11:03:27.789Z,36.65
2018-05-07T11:04:37.224Z,36.65
2018-05-07T11:05:46.414Z,36.94
2018-05-07T11:06:55.584Z,36.65
2018-05-07T11:08:04.747Z,36.74
2018-05-07T11:09:13.472Z,36.65
2018-05-07T11:10:22.637Z,36.65
2018-05-07T11:11:32.064Z,36.74
2018-05-07T11:12:41.263Z,36.74
2018-05-07T11:13:50.724Z,36.74
2018-05-07T11:14:59.987Z,36.65
2018-05-07T11:16:09.491Z,36.65
2018-05-07T11:17:18.768Z,36.84
2018-05-07T11:18:28.025Z,36.65
2018-05-07T11:19:38.107Z,36.94
2018-05-07T11:20:48.054Z,36.74
2018-05-07T11:21:57.727Z,36.74
2018-05-07T11:23:06.890Z,36.74
2018-05-07T11:24:16.321Z,36.84
2018-05-07T11:25:25.754Z,36.65
2018-05-07T11:26:35.462Z,36.65
2018-05-07T11:27:44.634Z,36.74
2018-05-07T11:28:53.836Z,36.94
2018-05-07T11:30:03.302Z,36.74
2018-05-07T11:31:12.680Z,36.74
2018-05-07T11:32:22.341Z,36.65
2018-05-07T11:33:31.859Z,36.65
2018-05-07T11:34:41.572Z,36.74
2018-05-07T11:35:51.140Z,36.74
2018-05-07T11:37:00.447Z,36.74
2018-05-07T11:38:09.670Z,36.94
2018-05-07T11:39:19.105Z,36.84
2018-05-07T11:40:28.800Z,36.84
2018-05-07T11:41:38.258Z,36.74
2018-05-07T11:42:47.174Z,36.65
2018-05-07T11:43:56.124Z,36.74
2018-05-07T11:45:05.062Z,36.65
2018-05-07T11:46:14.212Z,36.65
2018-05-07T11:47:23.711Z,36.74
2018-05-07T11:48:33.426Z,36.74
2018-05-07T11:49:42.600Z,37.04
2018-05-07T11:50:52.284Z,37.04
2018-05-07T11:52:01.474Z,37.04
2018-05-07T11:53:11.078Z,36.94
2018-05-07T11:54:21.455Z,36.65
2018-05-07T11:55:30.897Z,36.74
2018-05-07T11:56:40.101Z,36.74
2018-05-07T11:57:49.516Z,36.84
2018-05-07T11:58:58.420Z,36.94
2018-05-07T12:00:07.913Z,37.13
2018-05-07T12:01:17.608Z,36.74
2018-05-07T12:02:27.139Z,37.04
2018-05-07T12:03:37.076Z,36.84
2018-05-07T12:04:46.516Z,36.94
2018-05-07T12:05:55.466Z,36.94
2018-05-07T12:07:04.647Z,36.84
2018-05-07T12:08:14.077Z,36.74
2018-05-07T12:09:23.561Z,36.94
2018-05-07T12:10:33.005Z,36.74
2018-05-07T12:11:42.701Z,36.94
2018-05-07T12:12:51.599Z,36.94
2018-05-07T12:14:01.025Z,36.74
2018-05-07T12:15:10.686Z,36.84
2018-05-07T12:16:19.847Z,36.84
2018-05-07T12:17:29.334Z,36.84
2018-05-07T12:18:39.029Z,36.84
2018-05-07T12:19:48.753Z,36.84
2018-05-07T12:20:58.169Z,36.74
2018-05-07T12:22:07.336Z,36.84
2018-05-07T12:23:16.265Z,36.74
2018-05-07T12:24:26.273Z,36.84
2018-05-07T12:25:35.981Z,36.84
2018-05-07T12:26:45.930Z,36.94
2018-05-07T12:27:55.338Z,36.94
2018-05-07T12:29:04.755Z,36.94
2018-05-07T12:30:14.240Z,36.84
2018-05-07T12:31:23.826Z,36.74
2018-05-07T12:32:33.359Z,36.74
2018-05-07T12:33:43.094Z,36.65
2018-05-07T12:34:52.261Z,36.65
2018-05-07T12:36:01.435Z,36.74
2018-05-07T12:37:10.836Z,36.74
2018-05-07T12:38:19.737Z,36.74
2018-05-07T12:39:29.460Z,36.74
2018-05-07T12:40:38.980Z,36.84
2018-05-07T12:41:48.677Z,36.74
2018-05-07T12:42:58.138Z,36.74
2018-05-07T12:44:07.361Z,36.74
2018-05-07T12:45:17.040Z,36.84
2018-05-07T12:46:26.501Z,36.74
2018-05-07T12:47:36.475Z,36.55
2018-05-07T12:48:45.621Z,36.55
2018-05-07T12:49:54.834Z,36.74
2018-05-07T12:51:04.251Z,36.74
2018-05-07T12:52:13.512Z,36.55
2018-05-07T12:53:23.624Z,36.74
2018-05-07T12:54:33.075Z,36.55
2018-05-07T12:55:42.241Z,36.55
2018-05-07T12:56:51.662Z,36.46
2018-05-07T12:58:01.335Z,36.55
2018-05-07T12:59:10.872Z,36.57
2018-05-07T13:00:20.440Z,36.55
2018-05-07T13:01:29.871Z,36.57
2018-05-07T13:02:39.316Z,36.46
2018-05-07T13:03:48.498Z,36.46
2018-05-07T13:04:57.943Z,36.36
2018-05-07T13:06:06.604Z,36.38
2018-05-07T13:07:15.755Z,36.55
2018-05-07T13:08:24.664Z,36.26
2018-05-07T13:09:33.860Z,36.46
2018-05-07T13:10:42.797Z,36.07
2018-05-07T13:11:52.277Z,36.07
2018-05-07T13:13:01.512Z,36.55
2018-05-07T13:14:10.752Z,36.47
2018-05-07T13:15:19.973Z,36.57
2018-05-07T13:16:29.400Z,36.47
2018-05-07T13:17:38.863Z,36.57
2018-05-07T13:18:48.022Z,36.47
2018-05-07T13:19:56.681Z,36.28
2018-05-07T13:21:06.371Z,36.36
2018-05-07T13:22:15.863Z,36.28
2018-05-07T13:23:25.543Z,36.38
2018-05-07T13:24:35.237Z,36.38
2018-05-07T13:25:44.781Z,36.18
2018-05-07T13:26:54.235Z,36.28
2018-05-07T13:28:03.684Z,36.47
2018-05-07T13:29:13.624Z,36.47
2018-05-07T13:30:22.513Z,36.28
2018-05-07T13:31:31.698Z,36.38
2018-05-07T13:32:41.110Z,36.38
2018-05-07T13:33:50.848Z,36.18
2018-05-07T13:35:00.543Z,35.99
2018-05-07T13:36:09.446Z,35.89
2018-05-07T13:37:19.380Z,35.99
2018-05-07T13:38:28.817Z,36.08
2018-05-07T13:39:38.234Z,35.99
2018-05-07T13:40:47.922Z,35.8
2018-05-07T13:41:57.376Z,36.18
2018-05-07T13:43:06.893Z,35.99
2018-05-07T13:44:16.541Z,35.8
2018-05-07T13:45:26.234Z,35.89
2018-05-07T13:46:35.411Z,35.89
2018-05-07T13:47:44.364Z,36.08
2018-05-07T13:48:53.787Z,36.08
2018-05-07T13:50:03.907Z,36.08
2018-05-07T13:51:13.487Z,35.89
2018-05-07T13:52:22.919Z,35.89
2018-05-07T13:53:32.342Z,35.89
2018-05-07T13:54:41.769Z,35.99
2018-05-07T13:55:51.438Z,36.08
2018-05-07T13:57:01.319Z,35.89
2018-05-07T13:58:09.955Z,35.8
2018-05-07T13:59:19.385Z,35.89
2018-05-07T14:00:28.826Z,35.89
2018-05-07T14:01:38.543Z,35.89
2018-05-07T14:02:48.521Z,35.8
2018-05-07T14:03:58.055Z,35.99
2018-05-07T14:05:07.522Z,35.89
2018-05-07T14:06:16.696Z,35.89
2018-05-07T14:07:26.408Z,35.6
2018-05-07T14:08:35.838Z,35.89
2018-05-07T14:09:45.390Z,35.89
2018-05-07T14:10:55.066Z,35.8
2018-05-07T14:12:04.497Z,35.8
2018-05-07T14:13:13.665Z,35.89
2018-05-07T14:14:23.363Z,35.8
2018-05-07T14:15:33.340Z,35.62
2018-05-07T14:16:42.254Z,36.1
2018-05-07T14:17:52.250Z,36.1
2018-05-07T14:19:01.451Z,35.72
2018-05-07T14:20:10.900Z,35.91
2018-05-07T14:21:20.847Z,35.91
2018-05-07T14:22:29.761Z,35.89
2018-05-07T14:23:38.752Z,36.1
2018-05-07T14:24:48.435Z,36
2018-05-07T14:25:57.616Z,36
2018-05-07T14:27:07.128Z,36
2018-05-07T14:28:16.313Z,35.91
2018-05-07T14:29:26.003Z,35.91
2018-05-07T14:30:35.170Z,35.91
2018-05-07T14:31:44.604Z,35.91
2018-05-07T14:32:54.353Z,35.91
2018-05-07T14:34:04.092Z,36
2018-05-07T14:35:13.551Z,35.91
2018-05-07T14:36:22.720Z,36.1
2018-05-07T14:37:31.936Z,35.91
2018-05-07T14:38:41.506Z,35.91
2018-05-07T14:39:51.270Z,35.81
2018-05-07T14:41:00.200Z,36.2
2018-05-07T14:42:09.123Z,36.1
2018-05-07T14:43:18.317Z,36
2018-05-07T14:44:27.478Z,36
2018-05-07T14:45:36.434Z,35.91
2018-05-07T14:46:46.122Z,36.2
2018-05-07T14:47:55.821Z,36.2
2018-05-07T14:49:05.259Z,36
2018-05-07T14:50:14.818Z,36
2018-05-07T14:51:24.068Z,35.81
2018-05-07T14:52:33.562Z,35.91
2018-05-07T14:53:43.063Z,36
2018-05-07T14:54:52.240Z,36.1
2018-05-07T14:56:01.185Z,36.3